sensor_id;sensor_type;location;lat;lon;timestamp;P1;durP1;ratioP1;P2;durP2;ratioP2
16308;SDS011;8263;48.880;9.276;2023-11-18T00:00:31;169.60;;;156.05;;
16308;SDS011;8263;48.880;9.276;2023-11-18T00:03:09;173.48;;;159.48;;
16308;SDS011;8263;48.880;9.276;2023-11-18T00:05:43;173.00;;;159.05;;
16308;SDS011;8263;48.880;9.276;2023-11-18T00:08:09;172.68;;;158.73;;
16308;SDS011;8263;48.880;9.276;2023-11-18T00:10:39;170.27;;;156.63;;
16308;SDS011;8263;48.880;9.276;2023-11-18T00:13:13;172.23;;;158.32;;
16308;SDS011;8263;48.880;9.276;2023-11-18T00:15:42;173.55;;;159.52;;
16308;SDS011;8263;48.880;9.276;2023-11-18T00:18:15;172.95;;;158.98;;
16308;SDS011;8263;48.880;9.276;2023-11-18T00:20:45;172.27;;;157.88;;
16308;SDS011;8263;48.880;9.276;2023-11-18T00:23:14;171.70;;;157.90;;
16308;SDS011;8263;48.880;9.276;2023-11-18T00:25:42;170.00;;;156.35;;
16308;SDS011;8263;48.880;9.276;2023-11-18T00:28:14;171.95;;;158.10;;
16308;SDS011;8263;48.880;9.276;2023-11-18T00:30:44;172.85;;;158.93;;
16308;SDS011;8263;48.880;9.276;2023-11-18T00:33:11;173.93;;;159.90;;
16308;SDS011;8263;48.880;9.276;2023-11-18T00:35:41;169.18;;;155.68;;
16308;SDS011;8263;48.880;9.276;2023-11-18T00:38:09;171.55;;;157.75;;
16308;SDS011;8263;48.880;9.276;2023-11-18T00:40:39;172.93;;;158.95;;
16308;SDS011;8263;48.880;9.276;2023-11-18T00:43:08;175.35;;;161.05;;
16308;SDS011;8263;48.880;9.276;2023-11-18T00:45:35;171.43;;;157.63;;
16308;SDS011;8263;48.880;9.276;2023-11-18T00:48:01;173.82;;;159.75;;
16308;SDS011;8263;48.880;9.276;2023-11-18T00:50:30;172.75;;;158.77;;
16308;SDS011;8263;48.880;9.276;2023-11-18T00:53:01;173.80;;;159.70;;
16308;SDS011;8263;48.880;9.276;2023-11-18T00:55:30;172.98;;;159.00;;
16308;SDS011;8263;48.880;9.276;2023-11-18T00:57:57;172.40;;;158.50;;
16308;SDS011;8263;48.880;9.276;2023-11-18T01:00:24;171.13;;;157.27;;
16308;SDS011;8263;48.880;9.276;2023-11-18T01:02:51;171.15;;;157.40;;
16308;SDS011;8263;48.880;9.276;2023-11-18T01:05:19;171.95;;;158.15;;
16308;SDS011;8263;48.880;9.276;2023-11-18T01:07:46;173.10;;;159.13;;
16308;SDS011;8263;48.880;9.276;2023-11-18T01:10:14;172.32;;;158.40;;
16308;SDS011;8263;48.880;9.276;2023-11-18T01:12:41;172.80;;;158.80;;
16308;SDS011;8263;48.880;9.276;2023-11-18T01:15:10;173.23;;;159.25;;
16308;SDS011;8263;48.880;9.276;2023-11-18T01:17:37;173.07;;;159.07;;
16308;SDS011;8263;48.880;9.276;2023-11-18T01:20:04;172.75;;;158.68;;
16308;SDS011;8263;48.880;9.276;2023-11-18T01:22:36;174.25;;;160.15;;
16308;SDS011;8263;48.880;9.276;2023-11-18T01:25:08;174.88;;;160.70;;
16308;SDS011;8263;48.880;9.276;2023-11-18T01:27:41;171.80;;;157.93;;
16308;SDS011;8263;48.880;9.276;2023-11-18T01:30:08;172.98;;;159.00;;
16308;SDS011;8263;48.880;9.276;2023-11-18T01:32:46;171.45;;;157.63;;
16308;SDS011;8263;48.880;9.276;2023-11-18T01:35:12;173.88;;;159.82;;
16308;SDS011;8263;48.880;9.276;2023-11-18T01:37:39;172.60;;;158.68;;
16308;SDS011;8263;48.880;9.276;2023-11-18T01:40:07;173.63;;;159.60;;
16308;SDS011;8263;48.880;9.276;2023-11-18T01:42:34;172.55;;;158.50;;
16308;SDS011;8263;48.880;9.276;2023-11-18T01:45:02;172.45;;;158.55;;
16308;SDS011;8263;48.880;9.276;2023-11-18T01:47:31;173.00;;;159.05;;
16308;SDS011;8263;48.880;9.276;2023-11-18T01:50:01;170.57;;;156.88;;
16308;SDS011;8263;48.880;9.276;2023-11-18T01:52:30;172.55;;;158.65;;
16308;SDS011;8263;48.880;9.276;2023-11-18T01:55:10;173.52;;;159.52;;
16308;SDS011;8263;48.880;9.276;2023-11-18T01:57:38;174.55;;;160.45;;
16308;SDS011;8263;48.880;9.276;2023-11-18T02:00:11;172.32;;;158.45;;
16308;SDS011;8263;48.880;9.276;2023-11-18T02:02:38;173.40;;;159.40;;
16308;SDS011;8263;48.880;9.276;2023-11-18T02:05:08;171.45;;;157.65;;
16308;SDS011;8263;48.880;9.276;2023-11-18T02:07:37;173.77;;;159.70;;
16308;SDS011;8263;48.880;9.276;2023-11-18T02:10:04;172.48;;;158.50;;
16308;SDS011;8263;48.880;9.276;2023-11-18T02:12:38;174.40;;;160.30;;
16308;SDS011;8263;48.880;9.276;2023-11-18T02:15:13;173.00;;;159.02;;
16308;SDS011;8263;48.880;9.276;2023-11-18T02:17:43;174.18;;;160.10;;
16308;SDS011;8263;48.880;9.276;2023-11-18T02:20:11;174.02;;;159.93;;
16308;SDS011;8263;48.880;9.276;2023-11-18T02:22:44;172.98;;;159.02;;
16308;SDS011;8263;48.880;9.276;2023-11-18T02:25:11;170.10;;;156.40;;
16308;SDS011;8263;48.880;9.276;2023-11-18T02:27:43;172.32;;;158.30;;
16308;SDS011;8263;48.880;9.276;2023-11-18T02:30:17;172.13;;;158.25;;
16308;SDS011;8263;48.880;9.276;2023-11-18T02:32:51;170.70;;;156.98;;
16308;SDS011;8263;48.880;9.276;2023-11-18T02:35:23;173.02;;;159.07;;
16308;SDS011;8263;48.880;9.276;2023-11-18T02:37:52;174.52;;;160.38;;
16308;SDS011;8263;48.880;9.276;2023-11-18T02:40:26;172.98;;;159.00;;
16308;SDS011;8263;48.880;9.276;2023-11-18T02:42:56;171.48;;;157.68;;
16308;SDS011;8263;48.880;9.276;2023-11-18T02:45:24;172.63;;;158.73;;
16308;SDS011;8263;48.880;9.276;2023-11-18T02:47:50;171.82;;;158.00;;
16308;SDS011;8263;48.880;9.276;2023-11-18T02:50:22;173.38;;;159.38;;
16308;SDS011;8263;48.880;9.276;2023-11-18T02:52:52;173.20;;;159.18;;
16308;SDS011;8263;48.880;9.276;2023-11-18T02:55:21;173.70;;;159.50;;
16308;SDS011;8263;48.880;9.276;2023-11-18T02:57:51;173.27;;;159.27;;
16308;SDS011;8263;48.880;9.276;2023-11-18T03:00:25;171.25;;;157.50;;
16308;SDS011;8263;48.880;9.276;2023-11-18T03:02:56;172.88;;;158.82;;
16308;SDS011;8263;48.880;9.276;2023-11-18T03:05:22;170.57;;;156.82;;
16308;SDS011;8263;48.880;9.276;2023-11-18T03:07:52;174.27;;;160.18;;
16308;SDS011;8263;48.880;9.276;2023-11-18T03:10:23;172.07;;;158.23;;
16308;SDS011;8263;48.880;9.276;2023-11-18T03:12:55;173.25;;;159.25;;
16308;SDS011;8263;48.880;9.276;2023-11-18T03:15:23;174.25;;;160.15;;
16308;SDS011;8263;48.880;9.276;2023-11-18T03:17:51;174.00;;;159.88;;
16308;SDS011;8263;48.880;9.276;2023-11-18T03:20:21;173.52;;;159.50;;
16308;SDS011;8263;48.880;9.276;2023-11-18T03:22:51;173.55;;;159.55;;
16308;SDS011;8263;48.880;9.276;2023-11-18T03:25:18;174.68;;;160.57;;
16308;SDS011;8263;48.880;9.276;2023-11-18T03:27:47;172.27;;;158.40;;
16308;SDS011;8263;48.880;9.276;2023-11-18T03:30:13;173.02;;;159.07;;
16308;SDS011;8263;48.880;9.276;2023-11-18T03:32:49;170.30;;;156.60;;
16308;SDS011;8263;48.880;9.276;2023-11-18T03:35:15;174.32;;;160.20;;
16308;SDS011;8263;48.880;9.276;2023-11-18T03:37:45;170.50;;;156.77;;
16308;SDS011;8263;48.880;9.276;2023-11-18T03:40:12;174.68;;;160.48;;
16308;SDS011;8263;48.880;9.276;2023-11-18T03:42:39;171.23;;;157.48;;
16308;SDS011;8263;48.880;9.276;2023-11-18T03:45:06;171.25;;;157.38;;
16308;SDS011;8263;48.880;9.276;2023-11-18T03:47:32;172.90;;;158.98;;
16308;SDS011;8263;48.880;9.276;2023-11-18T03:50:03;172.10;;;158.25;;
16308;SDS011;8263;48.880;9.276;2023-11-18T03:52:33;172.10;;;158.23;;
16308;SDS011;8263;48.880;9.276;2023-11-18T03:55:07;175.35;;;161.15;;
16308;SDS011;8263;48.880;9.276;2023-11-18T03:57:42;173.75;;;159.68;;
16308;SDS011;8263;48.880;9.276;2023-11-18T04:00:11;173.57;;;159.55;;
16308;SDS011;8263;48.880;9.276;2023-11-18T04:02:38;173.15;;;159.18;;
16308;SDS011;8263;48.880;9.276;2023-11-18T04:05:07;172.60;;;158.68;;
16308;SDS011;8263;48.880;9.276;2023-11-18T04:07:35;172.95;;;159.02;;
16308;SDS011;8263;48.880;9.276;2023-11-18T04:10:02;172.10;;;158.23;;
16308;SDS011;8263;48.880;9.276;2023-11-18T04:12:31;172.55;;;158.65;;
16308;SDS011;8263;48.880;9.276;2023-11-18T04:14:57;171.27;;;157.50;;
16308;SDS011;8263;48.880;9.276;2023-11-18T04:17:23;173.25;;;159.18;;
16308;SDS011;8263;48.880;9.276;2023-11-18T04:19:53;170.80;;;157.07;;
16308;SDS011;8263;48.880;9.276;2023-11-18T04:22:22;173.98;;;159.82;;
16308;SDS011;8263;48.880;9.276;2023-11-18T04:24:49;173.63;;;159.52;;
16308;SDS011;8263;48.880;9.276;2023-11-18T04:27:16;172.77;;;158.75;;
16308;SDS011;8263;48.880;9.276;2023-11-18T04:29:42;174.23;;;160.07;;
16308;SDS011;8263;48.880;9.276;2023-11-18T04:32:10;173.38;;;159.32;;
16308;SDS011;8263;48.880;9.276;2023-11-18T04:34:42;173.23;;;159.25;;
16308;SDS011;8263;48.880;9.276;2023-11-18T04:37:10;173.75;;;159.70;;
16308;SDS011;8263;48.880;9.276;2023-11-18T04:39:39;172.35;;;158.48;;
16308;SDS011;8263;48.880;9.276;2023-11-18T04:42:05;171.50;;;157.68;;
16308;SDS011;8263;48.880;9.276;2023-11-18T04:44:32;174.02;;;159.93;;
16308;SDS011;8263;48.880;9.276;2023-11-18T04:47:03;172.13;;;158.23;;
16308;SDS011;8263;48.880;9.276;2023-11-18T04:49:32;174.48;;;160.07;;
16308;SDS011;8263;48.880;9.276;2023-11-18T04:51:59;172.45;;;158.57;;
16308;SDS011;8263;48.880;9.276;2023-11-18T04:54:27;175.00;;;160.80;;
16308;SDS011;8263;48.880;9.276;2023-11-18T04:56:56;173.65;;;159.60;;
16308;SDS011;8263;48.880;9.276;2023-11-18T04:59:23;172.68;;;158.77;;
16308;SDS011;8263;48.880;9.276;2023-11-18T05:01:49;173.45;;;159.45;;
16308;SDS011;8263;48.880;9.276;2023-11-18T05:04:18;171.05;;;157.30;;
16308;SDS011;8263;48.880;9.276;2023-11-18T05:06:44;172.80;;;158.77;;
16308;SDS011;8263;48.880;9.276;2023-11-18T05:09:11;173.38;;;159.38;;
16308;SDS011;8263;48.880;9.276;2023-11-18T05:11:40;174.18;;;160.10;;
16308;SDS011;8263;48.880;9.276;2023-11-18T05:14:08;173.23;;;159.23;;
16308;SDS011;8263;48.880;9.276;2023-11-18T05:16:36;171.52;;;157.73;;
16308;SDS011;8263;48.880;9.276;2023-11-18T05:19:07;171.68;;;157.88;;
16308;SDS011;8263;48.880;9.276;2023-11-18T05:21:44;173.10;;;159.18;;
16308;SDS011;8263;48.880;9.276;2023-11-18T05:24:15;171.18;;;157.43;;
16308;SDS011;8263;48.880;9.276;2023-11-18T05:26:42;171.88;;;158.05;;
16308;SDS011;8263;48.880;9.276;2023-11-18T05:29:13;172.70;;;158.80;;
16308;SDS011;8263;48.880;9.276;2023-11-18T05:31:42;174.48;;;160.38;;
16308;SDS011;8263;48.880;9.276;2023-11-18T05:34:14;172.70;;;158.70;;
16308;SDS011;8263;48.880;9.276;2023-11-18T05:36:48;172.15;;;158.27;;
16308;SDS011;8263;48.880;9.276;2023-11-18T05:39:19;171.65;;;157.77;;
16308;SDS011;8263;48.880;9.276;2023-11-18T05:41:49;172.93;;;158.88;;
16308;SDS011;8263;48.880;9.276;2023-11-18T05:44:33;173.32;;;159.30;;
16308;SDS011;8263;48.880;9.276;2023-11-18T05:47:04;173.25;;;159.25;;
16308;SDS011;8263;48.880;9.276;2023-11-18T05:49:32;172.77;;;158.82;;
16308;SDS011;8263;48.880;9.276;2023-11-18T05:52:00;171.02;;;157.27;;
16308;SDS011;8263;48.880;9.276;2023-11-18T05:54:27;173.75;;;159.73;;
16308;SDS011;8263;48.880;9.276;2023-11-18T05:56:55;170.55;;;156.85;;
16308;SDS011;8263;48.880;9.276;2023-11-18T05:59:26;173.10;;;158.95;;
16308;SDS011;8263;48.880;9.276;2023-11-18T06:01:53;172.32;;;158.43;;
16308;SDS011;8263;48.880;9.276;2023-11-18T06:04:22;172.98;;;159.05;;
16308;SDS011;8263;48.880;9.276;2023-11-18T06:06:52;174.27;;;160.07;;
16308;SDS011;8263;48.880;9.276;2023-11-18T06:09:21;174.25;;;160.10;;
16308;SDS011;8263;48.880;9.276;2023-11-18T06:11:50;172.50;;;158.57;;
16308;SDS011;8263;48.880;9.276;2023-11-18T06:14:18;172.93;;;158.90;;
16308;SDS011;8263;48.880;9.276;2023-11-18T06:16:57;172.15;;;158.32;;
16308;SDS011;8263;48.880;9.276;2023-11-18T06:19:24;172.02;;;158.18;;
16308;SDS011;8263;48.880;9.276;2023-11-18T06:21:51;175.48;;;161.30;;
16308;SDS011;8263;48.880;9.276;2023-11-18T06:24:19;174.45;;;160.35;;
16308;SDS011;8263;48.880;9.276;2023-11-18T06:26:48;174.13;;;160.05;;
16308;SDS011;8263;48.880;9.276;2023-11-18T06:29:19;173.30;;;159.27;;
16308;SDS011;8263;48.880;9.276;2023-11-18T06:31:45;173.85;;;159.77;;
16308;SDS011;8263;48.880;9.276;2023-11-18T06:34:17;174.13;;;160.07;;
16308;SDS011;8263;48.880;9.276;2023-11-18T06:36:46;173.65;;;159.65;;
16308;SDS011;8263;48.880;9.276;2023-11-18T06:39:15;174.63;;;160.52;;
16308;SDS011;8263;48.880;9.276;2023-11-18T06:41:44;174.00;;;159.93;;
16308;SDS011;8263;48.880;9.276;2023-11-18T06:44:16;178.55;;;164.13;;
16308;SDS011;8263;48.880;9.276;2023-11-18T06:46:48;173.45;;;159.40;;
16308;SDS011;8263;48.880;9.276;2023-11-18T06:49:22;173.18;;;159.27;;
16308;SDS011;8263;48.880;9.276;2023-11-18T06:51:54;171.70;;;157.88;;
16308;SDS011;8263;48.880;9.276;2023-11-18T06:54:21;171.95;;;158.05;;
16308;SDS011;8263;48.880;9.276;2023-11-18T06:56:49;171.23;;;157.45;;
16308;SDS011;8263;48.880;9.276;2023-11-18T06:59:18;174.48;;;160.38;;
16308;SDS011;8263;48.880;9.276;2023-11-18T07:01:46;173.98;;;159.88;;
16308;SDS011;8263;48.880;9.276;2023-11-18T07:04:13;170.85;;;157.10;;
16308;SDS011;8263;48.880;9.276;2023-11-18T07:06:43;172.07;;;158.23;;
16308;SDS011;8263;48.880;9.276;2023-11-18T07:09:09;172.95;;;158.98;;
16308;SDS011;8263;48.880;9.276;2023-11-18T07:11:42;173.25;;;159.27;;
16308;SDS011;8263;48.880;9.276;2023-11-18T07:14:08;175.07;;;160.93;;
16308;SDS011;8263;48.880;9.276;2023-11-18T07:16:35;174.30;;;160.23;;
16308;SDS011;8263;48.880;9.276;2023-11-18T07:19:04;171.50;;;157.68;;
16308;SDS011;8263;48.880;9.276;2023-11-18T07:21:30;175.85;;;161.60;;
16308;SDS011;8263;48.880;9.276;2023-11-18T07:24:00;174.70;;;160.60;;
16308;SDS011;8263;48.880;9.276;2023-11-18T07:26:32;173.90;;;159.82;;
16308;SDS011;8263;48.880;9.276;2023-11-18T07:28:58;173.02;;;159.07;;
16308;SDS011;8263;48.880;9.276;2023-11-18T07:31:27;175.95;;;161.65;;
16308;SDS011;8263;48.880;9.276;2023-11-18T07:33:56;173.25;;;159.18;;
16308;SDS011;8263;48.880;9.276;2023-11-18T07:36:22;172.52;;;158.65;;
16308;SDS011;8263;48.880;9.276;2023-11-18T07:38:51;173.80;;;159.73;;
16308;SDS011;8263;48.880;9.276;2023-11-18T07:41:20;175.48;;;161.18;;
16308;SDS011;8263;48.880;9.276;2023-11-18T07:43:49;177.38;;;162.95;;
16308;SDS011;8263;48.880;9.276;2023-11-18T07:46:20;175.27;;;161.07;;
16308;SDS011;8263;48.880;9.276;2023-11-18T07:48:47;173.77;;;159.70;;
16308;SDS011;8263;48.880;9.276;2023-11-18T07:51:16;176.70;;;162.30;;
16308;SDS011;8263;48.880;9.276;2023-11-18T07:53:46;177.07;;;162.60;;
16308;SDS011;8263;48.880;9.276;2023-11-18T07:56:12;174.43;;;160.30;;
16308;SDS011;8263;48.880;9.276;2023-11-18T07:58:43;175.10;;;160.90;;
16308;SDS011;8263;48.880;9.276;2023-11-18T08:01:10;176.93;;;162.55;;
16308;SDS011;8263;48.880;9.276;2023-11-18T08:03:37;175.93;;;161.63;;
16308;SDS011;8263;48.880;9.276;2023-11-18T08:06:06;174.57;;;160.48;;
16308;SDS011;8263;48.880;9.276;2023-11-18T08:08:37;174.55;;;160.43;;
16308;SDS011;8263;48.880;9.276;2023-11-18T08:11:06;175.30;;;160.52;;
16308;SDS011;8263;48.880;9.276;2023-11-18T08:13:34;175.95;;;161.57;;
16308;SDS011;8263;48.880;9.276;2023-11-18T08:16:02;176.50;;;161.68;;
16308;SDS011;8263;48.880;9.276;2023-11-18T08:18:33;177.27;;;162.73;;
16308;SDS011;8263;48.880;9.276;2023-11-18T08:21:00;175.20;;;160.93;;
16308;SDS011;8263;48.880;9.276;2023-11-18T08:23:31;175.07;;;160.73;;
16308;SDS011;8263;48.880;9.276;2023-11-18T08:26:01;177.05;;;162.25;;
16308;SDS011;8263;48.880;9.276;2023-11-18T08:28:28;174.98;;;160.70;;
16308;SDS011;8263;48.880;9.276;2023-11-18T08:30:57;172.52;;;158.60;;
16308;SDS011;8263;48.880;9.276;2023-11-18T08:33:27;175.15;;;160.95;;
16308;SDS011;8263;48.880;9.276;2023-11-18T08:35:56;175.40;;;161.20;;
16308;SDS011;8263;48.880;9.276;2023-11-18T08:38:22;176.45;;;162.10;;
16308;SDS011;8263;48.880;9.276;2023-11-18T08:40:53;174.93;;;160.77;;
16308;SDS011;8263;48.880;9.276;2023-11-18T08:43:21;173.25;;;159.25;;
16308;SDS011;8263;48.880;9.276;2023-11-18T08:45:51;173.00;;;158.95;;
16308;SDS011;8263;48.880;9.276;2023-11-18T08:48:19;173.70;;;159.65;;
16308;SDS011;8263;48.880;9.276;2023-11-18T08:50:49;173.77;;;159.75;;
16308;SDS011;8263;48.880;9.276;2023-11-18T08:53:17;171.95;;;158.07;;
16308;SDS011;8263;48.880;9.276;2023-11-18T08:55:44;174.13;;;160.02;;
16308;SDS011;8263;48.880;9.276;2023-11-18T08:58:16;173.82;;;159.73;;
16308;SDS011;8263;48.880;9.276;2023-11-18T09:00:45;172.48;;;158.63;;
16308;SDS011;8263;48.880;9.276;2023-11-18T09:03:18;174.23;;;160.10;;
16308;SDS011;8263;48.880;9.276;2023-11-18T09:05:54;172.85;;;158.93;;
16308;SDS011;8263;48.880;9.276;2023-11-18T09:08:24;174.25;;;160.15;;
16308;SDS011;8263;48.880;9.276;2023-11-18T09:10:52;175.73;;;161.43;;
16308;SDS011;8263;48.880;9.276;2023-11-18T09:13:22;175.68;;;161.43;;
16308;SDS011;8263;48.880;9.276;2023-11-18T09:15:51;175.27;;;160.77;;
16308;SDS011;8263;48.880;9.276;2023-11-18T09:18:22;174.40;;;160.30;;
16308;SDS011;8263;48.880;9.276;2023-11-18T09:20:50;171.63;;;157.85;;
16308;SDS011;8263;48.880;9.276;2023-11-18T09:23:20;174.27;;;160.18;;
16308;SDS011;8263;48.880;9.276;2023-11-18T09:25:48;171.18;;;157.40;;
16308;SDS011;8263;48.880;9.276;2023-11-18T09:28:15;174.23;;;160.15;;
16308;SDS011;8263;48.880;9.276;2023-11-18T09:30:44;172.82;;;158.93;;
16308;SDS011;8263;48.880;9.276;2023-11-18T09:33:18;172.18;;;158.32;;
16308;SDS011;8263;48.880;9.276;2023-11-18T09:35:54;172.75;;;158.82;;
16308;SDS011;8263;48.880;9.276;2023-11-18T09:40:56;172.77;;;158.88;;
16308;SDS011;8263;48.880;9.276;2023-11-18T09:43:28;170.55;;;156.82;;
16308;SDS011;8263;48.880;9.276;2023-11-18T09:46:03;174.30;;;160.23;;
16308;SDS011;8263;48.880;9.276;2023-11-18T09:48:30;174.23;;;160.15;;
16308;SDS011;8263;48.880;9.276;2023-11-18T09:51:05;174.43;;;160.30;;
16308;SDS011;8263;48.880;9.276;2023-11-18T09:53:33;171.02;;;157.30;;
16308;SDS011;8263;48.880;9.276;2023-11-18T09:56:07;171.25;;;157.45;;
16308;SDS011;8263;48.880;9.276;2023-11-18T09:58:36;170.93;;;157.23;;
16308;SDS011;8263;48.880;9.276;2023-11-18T10:01:06;172.07;;;158.25;;
16308;SDS011;8263;48.880;9.276;2023-11-18T10:03:38;171.60;;;157.82;;
16308;SDS011;8263;48.880;9.276;2023-11-18T10:06:09;172.55;;;158.57;;
16308;SDS011;8263;48.880;9.276;2023-11-18T10:08:37;170.38;;;156.75;;
16308;SDS011;8263;48.880;9.276;2023-11-18T10:11:04;173.75;;;159.75;;
16308;SDS011;8263;48.880;9.276;2023-11-18T10:13:35;173.10;;;159.18;;
16308;SDS011;8263;48.880;9.276;2023-11-18T10:16:06;172.60;;;158.70;;
16308;SDS011;8263;48.880;9.276;2023-11-18T10:18:33;170.48;;;156.77;;
16308;SDS011;8263;48.880;9.276;2023-11-18T10:21:02;172.27;;;158.40;;
16308;SDS011;8263;48.880;9.276;2023-11-18T10:23:29;172.27;;;158.30;;
16308;SDS011;8263;48.880;9.276;2023-11-18T10:25:59;170.80;;;157.10;;
16308;SDS011;8263;48.880;9.276;2023-11-18T10:28:26;171.35;;;157.63;;
16308;SDS011;8263;48.880;9.276;2023-11-18T10:30:56;170.93;;;157.23;;
16308;SDS011;8263;48.880;9.276;2023-11-18T10:33:24;171.43;;;157.68;;
16308;SDS011;8263;48.880;9.276;2023-11-18T10:35:58;172.07;;;158.25;;
16308;SDS011;8263;48.880;9.276;2023-11-18T10:38:29;168.57;;;155.13;;
16308;SDS011;8263;48.880;9.276;2023-11-18T10:41:01;169.07;;;155.57;;
16308;SDS011;8263;48.880;9.276;2023-11-18T10:43:28;169.85;;;156.25;;
16308;SDS011;8263;48.880;9.276;2023-11-18T10:46:06;169.52;;;156.00;;
16308;SDS011;8263;48.880;9.276;2023-11-18T10:48:37;168.68;;;155.23;;
16308;SDS011;8263;48.880;9.276;2023-11-18T10:51:09;170.32;;;156.73;;
16308;SDS011;8263;48.880;9.276;2023-11-18T10:53:39;168.77;;;155.35;;
16308;SDS011;8263;48.880;9.276;2023-11-18T10:56:19;171.13;;;157.43;;
16308;SDS011;8263;48.880;9.276;2023-11-18T10:58:51;171.23;;;157.52;;
16308;SDS011;8263;48.880;9.276;2023-11-18T11:01:28;168.27;;;154.88;;
16308;SDS011;8263;48.880;9.276;2023-11-18T11:03:54;168.60;;;155.07;;
16308;SDS011;8263;48.880;9.276;2023-11-18T11:06:31;171.43;;;157.68;;
16308;SDS011;8263;48.880;9.276;2023-11-18T11:08:58;168.15;;;154.77;;
16308;SDS011;8263;48.880;9.276;2023-11-18T11:11:25;169.77;;;156.23;;
16308;SDS011;8263;48.880;9.276;2023-11-18T11:13:53;170.35;;;156.57;;
16308;SDS011;8263;48.880;9.276;2023-11-18T11:16:21;169.90;;;156.30;;
16308;SDS011;8263;48.880;9.276;2023-11-18T11:18:55;169.40;;;155.88;;
16308;SDS011;8263;48.880;9.276;2023-11-18T11:21:23;170.35;;;156.40;;
16308;SDS011;8263;48.880;9.276;2023-11-18T11:24:00;169.07;;;155.60;;
16308;SDS011;8263;48.880;9.276;2023-11-18T11:26:34;170.65;;;157.02;;
16308;SDS011;8263;48.880;9.276;2023-11-18T11:29:09;168.50;;;155.10;;
16308;SDS011;8263;48.880;9.276;2023-11-18T11:31:38;169.85;;;156.25;;
16308;SDS011;8263;48.880;9.276;2023-11-18T11:34:09;170.15;;;156.55;;
16308;SDS011;8263;48.880;9.276;2023-11-18T11:36:41;169.02;;;155.55;;
16308;SDS011;8263;48.880;9.276;2023-11-18T11:39:08;169.50;;;156.00;;
16308;SDS011;8263;48.880;9.276;2023-11-18T11:41:40;168.93;;;155.50;;
16308;SDS011;8263;48.880;9.276;2023-11-18T11:44:11;166.40;;;153.25;;
16308;SDS011;8263;48.880;9.276;2023-11-18T11:46:45;167.68;;;154.38;;
16308;SDS011;8263;48.880;9.276;2023-11-18T11:49:23;168.57;;;155.15;;
16308;SDS011;8263;48.880;9.276;2023-11-18T11:51:54;167.32;;;154.02;;
16308;SDS011;8263;48.880;9.276;2023-11-18T11:54:25;166.63;;;153.45;;
16308;SDS011;8263;48.880;9.276;2023-11-18T11:56:56;167.60;;;154.30;;
16308;SDS011;8263;48.880;9.276;2023-11-18T12:02:20;169.40;;;155.88;;
16308;SDS011;8263;48.880;9.276;2023-11-18T12:04:51;166.18;;;153.05;;
16308;SDS011;8263;48.880;9.276;2023-11-18T12:07:19;168.73;;;155.32;;
16308;SDS011;8263;48.880;9.276;2023-11-18T12:09:48;168.18;;;154.77;;
16308;SDS011;8263;48.880;9.276;2023-11-18T12:12:19;167.77;;;154.48;;
16308;SDS011;8263;48.880;9.276;2023-11-18T12:18:08;169.80;;;156.30;;
16308;SDS011;8263;48.880;9.276;2023-11-18T12:20:40;167.23;;;153.98;;
16308;SDS011;8263;48.880;9.276;2023-11-18T12:23:10;168.13;;;154.77;;
16308;SDS011;8263;48.880;9.276;2023-11-18T12:25:40;169.13;;;155.65;;
16308;SDS011;8263;48.880;9.276;2023-11-18T12:28:08;164.10;;;151.18;;
16308;SDS011;8263;48.880;9.276;2023-11-18T12:30:44;165.80;;;152.70;;
16308;SDS011;8263;48.880;9.276;2023-11-18T12:33:20;167.70;;;154.40;;
16308;SDS011;8263;48.880;9.276;2023-11-18T12:36:07;168.10;;;154.75;;
16308;SDS011;8263;48.880;9.276;2023-11-18T12:38:46;168.55;;;155.18;;
16308;SDS011;8263;48.880;9.276;2023-11-18T12:41:25;165.18;;;152.20;;
16308;SDS011;8263;48.880;9.276;2023-11-18T12:44:02;167.73;;;154.45;;
16308;SDS011;8263;48.880;9.276;2023-11-18T12:46:43;167.65;;;154.40;;
16308;SDS011;8263;48.880;9.276;2023-11-18T12:49:15;167.52;;;154.25;;
16308;SDS011;8263;48.880;9.276;2023-11-18T12:51:43;166.88;;;153.65;;
16308;SDS011;8263;48.880;9.276;2023-11-18T12:54:11;168.68;;;155.27;;
16308;SDS011;8263;48.880;9.276;2023-11-18T12:56:38;166.93;;;153.75;;
16308;SDS011;8263;48.880;9.276;2023-11-18T12:59:04;164.80;;;151.80;;
16308;SDS011;8263;48.880;9.276;2023-11-18T13:01:32;166.15;;;153.05;;
16308;SDS011;8263;48.880;9.276;2023-11-18T13:04:01;168.00;;;154.70;;
16308;SDS011;8263;48.880;9.276;2023-11-18T13:06:28;169.43;;;155.88;;
16308;SDS011;8263;48.880;9.276;2023-11-18T13:08:56;165.95;;;152.88;;
16308;SDS011;8263;48.880;9.276;2023-11-18T13:11:23;167.88;;;154.57;;
16308;SDS011;8263;48.880;9.276;2023-11-18T13:13:50;164.35;;;151.45;;
16308;SDS011;8263;48.880;9.276;2023-11-18T13:16:17;166.88;;;153.57;;
16308;SDS011;8263;48.880;9.276;2023-11-18T13:18:44;164.50;;;151.57;;
16308;SDS011;8263;48.880;9.276;2023-11-18T13:21:14;166.25;;;153.15;;
16308;SDS011;8263;48.880;9.276;2023-11-18T13:23:45;166.35;;;153.18;;
16308;SDS011;8263;48.880;9.276;2023-11-18T13:26:13;165.38;;;152.32;;
16308;SDS011;8263;48.880;9.276;2023-11-18T13:28:40;166.68;;;153.50;;
16308;SDS011;8263;48.880;9.276;2023-11-18T13:31:08;166.88;;;153.27;;
16308;SDS011;8263;48.880;9.276;2023-11-18T13:33:41;168.90;;;155.35;;
16308;SDS011;8263;48.880;9.276;2023-11-18T13:36:08;168.43;;;154.75;;
16308;SDS011;8263;48.880;9.276;2023-11-18T13:38:35;166.43;;;153.20;;
16308;SDS011;8263;48.880;9.276;2023-11-18T13:41:02;167.40;;;154.18;;
16308;SDS011;8263;48.880;9.276;2023-11-18T13:43:42;166.85;;;153.23;;
16308;SDS011;8263;48.880;9.276;2023-11-18T13:46:10;167.30;;;154.10;;
16308;SDS011;8263;48.880;9.276;2023-11-18T13:48:37;167.07;;;153.88;;
16308;SDS011;8263;48.880;9.276;2023-11-18T13:51:05;166.75;;;153.57;;
16308;SDS011;8263;48.880;9.276;2023-11-18T13:53:33;164.02;;;151.15;;
16308;SDS011;8263;48.880;9.276;2023-11-18T13:55:59;167.25;;;153.95;;
16308;SDS011;8263;48.880;9.276;2023-11-18T13:58:26;168.65;;;155.25;;
16308;SDS011;8263;48.880;9.276;2023-11-18T14:00:55;166.73;;;153.55;;
16308;SDS011;8263;48.880;9.276;2023-11-18T14:03:21;166.82;;;153.68;;
16308;SDS011;8263;48.880;9.276;2023-11-18T14:05:50;168.18;;;154.85;;
16308;SDS011;8263;48.880;9.276;2023-11-18T14:08:17;169.50;;;156.02;;
16308;SDS011;8263;48.880;9.276;2023-11-18T14:10:44;166.35;;;153.20;;
16308;SDS011;8263;48.880;9.276;2023-11-18T14:13:13;167.02;;;153.73;;
16308;SDS011;8263;48.880;9.276;2023-11-18T14:15:42;166.73;;;153.57;;
16308;SDS011;8263;48.880;9.276;2023-11-18T14:18:11;165.85;;;152.77;;
16308;SDS011;8263;48.880;9.276;2023-11-18T14:20:39;166.55;;;153.32;;
16308;SDS011;8263;48.880;9.276;2023-11-18T14:23:05;165.73;;;152.65;;
16308;SDS011;8263;48.880;9.276;2023-11-18T14:25:33;165.43;;;152.35;;
16308;SDS011;8263;48.880;9.276;2023-11-18T14:28:00;166.48;;;153.35;;
16308;SDS011;8263;48.880;9.276;2023-11-18T14:30:27;166.32;;;153.23;;